Time;durP1;ratioP1;P1;durP2;ratioP2;P2;SDS_P1;SDS_P2;PMS_P1;PMS_P2;Temp;Humidity;BMP_temperature;BMP_pressure;BME280_temperature;BME280_humidity;BME280_pressure;Samples;Min_cycle;Max_cycle;Signal;HPM_P1;HPM_P2
2023/06/08 00:10:55;;;;;;;11.38;8.23;;;;;;;17.09;63.26;100204.59;30852718;28;96779;-71
2023/06/08 00:25:56;;;;;;;11.48;9.30;;;;;;;16.70;64.15;100206.31;30853627;28;97484;-69
2023/06/08 00:40:56;;;;;;;19.35;12.80;;;;;;;16.39;65.36;100199.75;30853888;28;97159;-69
2023/06/08 00:55:57;;;;;;;14.82;10.00;;;;;;;16.14;66.35;100196.88;30865231;28;97964;-71
2023/06/08 01:11:11;;;;;;;18.98;12.73;;;;;;;15.93;67.08;100203.28;30871546;28;96756;-71
2023/06/08 01:26:15;;;;;;;16.27;13.50;;;;;;;15.66;68.09;100200.50;30871690;28;96815;-71
2023/06/08 01:41:22;;;;;;;15.43;11.70;;;;;;;15.48;68.98;100188.47;30870176;28;97092;-71
2023/06/08 01:56:27;;;;;;;16.17;11.53;;;;;;;15.33;69.64;100191.31;30867249;28;96771;-71
2023/06/08 02:11:27;;;;;;;18.30;13.17;;;;;;;15.17;70.20;100208.63;30866896;28;96658;-70
2023/06/08 02:26:27;;;;;;;14.90;11.32;;;;;;;15.03;70.49;100204.22;30864842;28;96687;-70
2023/06/08 02:41:28;;;;;;;27.42;10.82;;;;;;;14.95;70.67;100205.19;30862320;28;104544;-71
2023/06/08 02:56:28;;;;;;;15.60;12.13;;;;;;;14.87;71.21;100218.78;30862516;28;98106;-68
2023/06/08 03:11:28;;;;;;;13.55;10.65;;;;;;;14.93;71.98;100212.63;31175442;22;100737;-68
2023/06/08 03:26:29;;;;;;;15.68;12.30;;;;;;;15.04;71.75;100219.28;30497926;28;110515;-72
2023/06/08 03:41:29;;;;;;;23.48;16.70;;;;;;;15.31;72.77;100216.69;30496668;28;96633;-70
2023/06/08 03:56:29;;;;;;;22.38;12.07;;;;;;;15.70;72.03;100221.38;30495485;28;96563;-68
2023/06/08 04:11:30;;;;;;;21.85;13.70;;;;;;;16.18;71.81;100225.81;30489617;28;96794;-69
2023/06/08 04:26:30;;;;;;;18.27;13.18;;;;;;;16.72;71.23;100225.78;30481015;28;116183;-70
2023/06/08 04:41:31;;;;;;;20.98;15.85;;;;;;;17.01;70.75;100240.63;30487322;28;97256;-68
2023/06/08 04:56:33;;;;;;;23.55;15.27;;;;;;;17.57;70.47;100254.50;30482609;28;97189;-69
2023/06/08 05:11:33;;;;;;;17.60;12.43;;;;;;;18.29;70.11;100239.97;30476059;28;97049;-69
2023/06/08 05:26:34;;;;;;;13.32;11.25;;;;;;;19.02;68.94;100251.97;30485648;28;97072;-70
2023/06/08 05:41:34;;;;;;;14.52;10.82;;;;;;;19.55;67.44;100254.03;30504193;28;97556;-69
2023/06/08 05:56:35;;;;;;;11.98;9.30;;;;;;;20.17;66.00;100239.44;30506639;28;96979;-68
2023/06/08 06:11:35;;;;;;;10.77;9.03;;;;;;;20.99;64.33;100253.25;30504319;28;98470;-69
2023/06/08 06:26:35;;;;;;;11.00;8.30;;;;;;;21.63;61.79;100256.72;30502607;28;111379;-67
2023/06/08 06:41:36;;;;;;;7.97;7.18;;;;;;;22.36;59.07;100258.84;30501312;28;96877;-68
2023/06/08 06:56:36;;;;;;;8.93;7.57;;;;;;;23.26;56.65;100268.84;30500211;28;114069;-68
2023/06/08 07:11:36;;;;;;;9.55;7.10;;;;;;;24.18;53.67;100263.56;30498479;28;105121;-71
2023/06/08 07:26:37;;;;;;;7.90;6.35;;;;;;;25.71;50.10;100264.69;30497035;28;106064;-70
2023/06/08 07:41:37;;;;;;;7.78;5.50;;;;;;;27.01;46.31;100248.00;30496665;28;97042;-70
2023/06/08 07:56:39;;;;;;;5.88;5.03;;;;;;;28.09;42.48;100245.81;30494931;28;112104;-70
2023/06/08 08:11:39;;;;;;;5.57;4.50;;;;;;;29.54;38.79;100243.97;30492751;28;96988;-71
2023/06/08 08:26:43;;;;;;;5.70;4.88;;;;;;;29.88;35.20;100247.59;30492947;28;97319;-67
2023/06/08 08:41:48;;;;;;;6.17;4.80;;;;;;;29.68;34.99;100244.03;30491393;28;97422;-67
2023/06/08 08:56:49;;;;;;;6.90;4.70;;;;;;;30.48;34.23;100240.59;30488597;28;96758;-67
2023/06/08 09:11:59;;;;;;;9.60;4.70;;;;;;;30.81;33.31;100237.78;30499462;28;97413;-68
2023/06/08 09:27:03;;;;;;;4.87;4.30;;;;;;;31.13;32.97;100219.56;30509574;28;96607;-70
2023/06/08 09:42:05;;;;;;;9.23;4.60;;;;;;;31.47;31.60;100210.00;30507613;28;96800;-73
2023/06/08 09:57:06;;;;;;;4.40;3.60;;;;;;;31.78;30.05;100192.78;30505337;28;96785;-68
2023/06/08 10:12:07;;;;;;;4.37;2.93;;;;;;;31.37;28.54;100181.59;30498034;28;97064;-66
2023/06/08 10:27:23;;;;;;;6.03;2.97;;;;;;;31.51;27.06;100166.97;30492419;28;97708;-67
2023/06/08 10:42:24;;;;;;;4.83;2.93;;;;;;;31.48;25.68;100154.63;30491106;28;97008;-66
2023/06/08 10:57:42;;;;;;;6.38;2.90;;;;;;;31.85;24.56;100149.91;30499472;28;96851;-66
2023/06/08 11:12:43;;;;;;;5.47;3.20;;;;;;;32.59;24.77;100128.38;30498013;28;97460;-66
2023/06/08 11:27:44;;;;;;;6.05;3.40;;;;;;;32.42;24.65;100118.09;30498124;28;96793;-66
2023/06/08 11:42:45;;;;;;;5.43;3.17;;;;;;;31.66;24.81;100095.03;30496686;28;97328;-66
2023/06/08 11:57:56;;;;;;;6.32;3.20;;;;;;;32.22;24.42;100072.66;30495930;28;96847;-66
2023/06/08 12:12:57;;;;;;;5.90;3.23;;;;;;;32.75;23.60;100043.25;30493800;28;97111;-67
2023/06/08 12:27:58;;;;;;;11.05;3.60;;;;;;;32.80;23.68;100042.28;30492972;28;97310;-66
2023/06/08 12:42:58;;;;;;;6.30;3.47;;;;;;;32.03;23.89;100042.56;30490567;28;97322;-67
2023/06/08 12:57:59;;;;;;;4.82;3.03;;;;;;;31.66;24.20;100028.16;30490754;28;96824;-68
2023/06/08 13:13:00;;;;;;;6.45;3.20;;;;;;;31.69;24.57;100028.31;30488721;28;97308;-67
2023/06/08 13:28:01;;;;;;;4.47;3.53;;;;;;;31.12;24.69;100015.16;30488167;28;97375;-67
2023/06/08 13:43:02;;;;;;;4.00;2.97;;;;;;;31.32;24.06;100000.06;30487375;28;97414;-67
2023/06/08 13:58:02;;;;;;;5.28;3.10;;;;;;;31.12;24.62;99992.34;30496722;28;97369;-68
2023/06/08 14:13:02;;;;;;;7.45;3.00;;;;;;;30.13;25.94;99990.13;30504371;28;108308;-67
2023/06/08 14:28:06;;;;;;;9.40;3.17;;;;;;;29.70;26.34;99972.81;30503840;28;101201;-68
2023/06/08 14:43:07;;;;;;;4.73;3.17;;;;;;;29.65;26.31;99953.69;30503246;28;97029;-67
2023/06/08 14:58:07;;;;;;;5.47;3.03;;;;;;;29.89;25.48;99949.97;30501179;28;97522;-67
2023/06/08 15:13:08;;;;;;;5.45;2.83;;;;;;;29.75;25.68;99946.38;30498300;28;97366;-67
2023/06/08 15:28:09;;;;;;;7.65;3.10;;;;;;;29.06;25.89;99939.66;30498084;28;96680;-67
2023/06/08 15:43:11;;;;;;;5.70;2.93;;;;;;;28.82;25.70;99920.59;30496371;28;97249;-67
2023/06/08 15:58:12;;;;;;;4.13;3.30;;;;;;;28.96;25.99;99920.63;30495451;28;97123;-67
2023/06/08 16:13:12;;;;;;;5.45;3.13;;;;;;;28.96;25.73;99915.94;30493358;28;97607;-67
2023/06/08 16:28:13;;;;;;;6.10;3.35;;;;;;;28.33;26.98;99912.50;30491656;28;96770;-67
2023/06/08 16:43:13;;;;;;;4.95;3.10;;;;;;;28.00;26.74;99900.66;30490866;28;97055;-67
2023/06/08 16:58:13;;;;;;;5.82;3.00;;;;;;;27.85;27.46;99899.72;30490208;28;97079;-67
2023/06/08 17:13:15;;;;;;;4.13;3.22;;;;;;;27.42;28.15;99901.59;30488831;28;96716;-68
2023/06/08 17:28:15;;;;;;;8.23;3.30;;;;;;;26.89;28.95;99902.31;30492251;28;98652;-68
2023/06/08 17:43:16;;;;;;;5.90;3.17;;;;;;;26.54;29.77;99907.75;30508154;28;96671;-67
2023/06/08 17:58:16;;;;;;;6.78;4.30;;;;;;;26.19;30.78;99926.00;30488981;28;102595;-67
2023/06/08 18:13:16;;;;;;;6.05;3.40;;;;;;;25.67;31.79;99920.72;30504623;28;106554;-67
2023/06/08 18:28:17;;;;;;;6.63;3.20;;;;;;;25.17;32.18;99927.88;30502738;28;97263;-67
2023/06/08 18:43:17;;;;;;;6.30;3.60;;;;;;;24.48;33.46;99933.53;30501509;28;96701;-67
2023/06/08 18:58:18;;;;;;;5.88;4.50;;;;;;;23.70;35.31;99949.78;30500634;28;104743;-67
2023/06/08 19:13:18;;;;;;;8.25;4.65;;;;;;;22.95;37.18;99959.56;30497081;28;97487;-67
2023/06/08 19:28:18;;;;;;;7.70;4.40;;;;;;;22.36;39.17;99978.50;30498098;28;109159;-67
2023/06/08 19:43:18;;;;;;;7.35;5.00;;;;;;;21.86;40.54;99991.16;30496337;28;110598;-67
2023/06/08 19:58:20;;;;;;;9.50;6.40;;;;;;;21.37;42.21;99999.88;30495686;28;113345;-67
2023/06/08 20:13:20;;;;;;;6.67;5.37;;;;;;;20.94;44.03;99994.84;30494008;28;96821;-67
2023/06/08 20:28:22;;;;;;;7.83;4.93;;;;;;;20.57;45.35;100000.63;30494193;28;103547;-67
2023/06/08 20:43:22;;;;;;;8.40;5.33;;;;;;;20.24;46.36;100004.84;30493318;28;97145;-66
2023/06/08 20:58:22;;;;;;;10.87;5.07;;;;;;;19.95;47.36;100007.47;30491620;28;96743;-66
2023/06/08 21:13:23;;;;;;;8.18;5.28;;;;;;;19.68;48.50;100012.50;30507799;28;96820;-67
2023/06/08 21:28:23;;;;;;;14.15;8.73;;;;;;;19.36;49.58;100020.13;30510194;28;97122;-67
2023/06/08 21:43:24;;;;;;;14.57;9.05;;;;;;;19.04;51.01;100015.84;30509148;28;97780;-67
2023/06/08 21:58:25;;;;;;;18.75;8.43;;;;;;;18.77;52.37;100016.16;30508116;28;97270;-67
2023/06/08 22:13:30;;;;;;;11.33;7.13;;;;;;;18.54;53.16;100018.78;30506747;28;96734;-67
2023/06/08 22:28:33;;;;;;;14.70;10.53;;;;;;;18.31;54.07;100017.59;30505694;28;97535;-66
2023/06/08 22:43:33;;;;;;;15.63;10.07;;;;;;;18.06;55.27;100026.56;30503730;28;97020;-67
2023/06/08 22:58:34;;;;;;;9.35;8.30;;;;;;;17.88;55.83;100016.56;30501938;28;104803;-67
2023/06/08 23:13:37;;;;;;;11.70;9.15;;;;;;;17.74;56.29;100015.88;30500319;28;108743;-67
2023/06/08 23:28:37;;;;;;;13.73;9.40;;;;;;;17.52;57.25;100010.06;30499376;28;96866;-67
2023/06/08 23:43:38;;;;;;;16.70;9.40;;;;;;;17.29;57.96;100016.06;30498361;28;96937;-67
2023/06/08 23:58:39;;;;;;;12.57;9.10;;;;;;;17.10;58.81;100007.09;30497436;28;97649;-67
